Time;durP1;ratioP1;P1;durP2;ratioP2;P2;SDS_P1;SDS_P2;PMS_P1;PMS_P2;Temp;Humidity;BMP_temperature;BMP_pressure;BME280_temperature;BME280_humidity;BME280_pressure;Samples;Min_cycle;Max_cycle;Signal;HPM_P1;HPM_P2
2022/03/21 00:02:26;;;;;;;5.80;3.90;;;18.40;46.90;;;;;;4907334;29;20051;-85
2022/03/21 00:04:55;;;;;;;6.07;3.92;;;17.90;46.60;;;;;;4954343;29;20047;-83
2022/03/21 00:07:32;;;;;;;5.45;3.90;;;17.90;46.70;;;;;;4938078;29;20070;-84
2022/03/21 00:09:57;;;;;;;5.90;4.15;;;19.10;47.30;;;;;;4954783;29;20074;-84
2022/03/21 00:12:23;;;;;;;5.93;4.03;;;17.90;46.90;;;;;;4954185;29;20399;-84
2022/03/21 00:15:14;;;;;;;6.53;3.92;;;19.70;47.60;;;;;;4954317;29;20083;-84
2022/03/21 00:17:50;;;;;;;5.47;3.80;;;19.60;47.70;;;;;;4916604;29;20067;-84
2022/03/21 00:20:39;;;;;;;6.15;3.80;;;17.90;46.60;;;;;;4936185;29;20134;-83
2022/03/21 00:23:31;;;;;;;6.82;4.20;;;17.90;46.60;;;;;;4937207;29;20047;-83
2022/03/21 00:29:31;;;;;;;5.63;3.90;;;18.70;47.00;;;;;;4876969;29;20053;-84
2022/03/21 00:32:15;;;;;;;5.35;3.50;;;18.40;47.00;;;;;;5253674;23;20061;-84
2022/03/21 00:34:40;;;;;;;5.70;4.20;;;17.90;46.60;;;;;;4953290;29;20059;-84
2022/03/21 00:37:07;;;;;;;5.60;3.97;;;17.90;46.60;;;;;;4954184;29;20102;-84
2022/03/21 00:39:33;;;;;;;5.68;3.60;;;17.80;46.60;;;;;;4954022;29;20086;-84
2022/03/21 00:41:59;;;;;;;5.18;3.42;;;17.90;46.60;;;;;;4935415;29;20149;-83
2022/03/21 00:44:25;;;;;;;4.97;3.70;;;17.90;46.60;;;;;;4937321;29;20039;-84
2022/03/21 00:46:51;;;;;;;6.90;3.80;;;17.90;46.60;;;;;;4936053;29;20066;-83
2022/03/21 00:49:19;;;;;;;6.47;4.10;;;17.90;47.30;;;;;;4953319;29;20161;-84
2022/03/21 00:51:45;;;;;;;5.50;3.97;;;17.90;46.60;;;;;;4954327;29;20043;-83
2022/03/21 00:54:10;;;;;;;6.68;3.88;;;17.90;46.60;;;;;;4936232;29;20047;-84
2022/03/21 00:56:36;;;;;;;5.95;4.20;;;17.90;47.30;;;;;;4936997;29;20044;-84
2022/03/21 00:59:03;;;;;;;6.82;3.90;;;17.90;46.60;;;;;;4936672;29;20055;-83
2022/03/21 01:01:29;;;;;;;5.55;3.42;;;17.80;46.60;;;;;;4936439;29;20051;-83
2022/03/21 01:03:54;;;;;;;5.75;3.90;;;17.90;46.60;;;;;;4954003;29;20047;-84
2022/03/21 01:06:22;;;;;;;5.82;4.00;;;17.80;46.90;;;;;;4959083;28;20054;-83
2022/03/21 01:08:50;;;;;;;6.47;4.28;;;17.80;46.60;;;;;;4942891;28;20047;-84
2022/03/21 01:11:19;;;;;;;4.82;3.38;;;17.80;46.50;;;;;;4943656;29;20447;-83
2022/03/21 01:13:46;;;;;;;5.47;3.65;;;17.80;46.60;;;;;;4943214;29;20129;-83
2022/03/21 01:16:15;;;;;;;6.25;3.85;;;17.80;46.60;;;;;;4942492;29;20479;-84
2022/03/21 01:18:44;;;;;;;5.25;3.83;;;19.50;47.50;;;;;;4943695;29;20093;-83
2022/03/21 01:21:11;;;;;;;5.80;3.63;;;17.80;46.60;;;;;;4942697;29;20055;-83
2022/03/21 01:23:36;;;;;;;5.75;3.70;;;17.80;46.60;;;;;;4942974;29;20085;-83
2022/03/21 01:26:02;;;;;;;5.28;3.60;;;17.80;46.60;;;;;;4943392;29;20086;-83
2022/03/21 01:28:28;;;;;;;5.22;3.75;;;17.80;46.60;;;;;;4960479;28;20047;-84
2022/03/21 01:30:56;;;;;;;6.75;4.03;;;19.30;47.50;;;;;;4926759;29;20055;-84
2022/03/21 01:33:22;;;;;;;4.70;3.30;;;17.80;46.60;;;;;;4942998;29;20059;-83
2022/03/21 01:35:47;;;;;;;5.78;3.70;;;17.80;46.60;;;;;;4943423;29;20059;-84
2022/03/21 01:38:13;;;;;;;5.80;3.75;;;17.80;46.60;;;;;;4960102;28;20050;-84
2022/03/21 01:40:39;;;;;;;5.95;3.70;;;17.80;46.60;;;;;;4943993;29;20043;-84
2022/03/21 01:43:11;;;;;;;6.60;3.90;;;17.80;46.60;;;;;;4961163;29;20114;-84
2022/03/21 01:45:38;;;;;;;5.32;3.60;;;18.20;46.80;;;;;;4944195;28;20043;-84
2022/03/21 01:48:04;;;;;;;5.00;3.50;;;17.80;46.60;;;;;;4943152;29;20059;-83
2022/03/21 01:50:32;;;;;;;5.75;3.60;;;17.80;46.60;;;;;;4960598;29;20383;-84
2022/03/21 01:55:48;;;;;;;5.68;3.35;;;17.80;46.60;;;;;;4915357;29;20150;-83
2022/03/21 01:58:17;;;;;;;5.82;3.35;;;17.80;46.60;;;;;;4943690;29;20156;-83
2022/03/21 02:00:43;;;;;;;5.15;3.60;;;17.80;46.70;;;;;;4927757;29;20504;-84
2022/03/21 02:03:12;;;;;;;6.53;3.53;;;17.80;46.70;;;;;;4959964;29;20058;-84
2022/03/21 02:05:43;;;;;;;5.35;3.53;;;17.80;46.70;;;;;;4961182;28;20057;-84
2022/03/21 02:08:08;;;;;;;5.07;3.28;;;17.80;46.70;;;;;;4912397;29;20771;-84
2022/03/21 02:10:39;;;;;;;5.75;3.35;;;17.80;46.70;;;;;;4912041;29;20043;-84
2022/03/21 02:13:05;;;;;;;5.95;3.58;;;17.80;46.80;;;;;;4928622;28;20058;-84
2022/03/21 02:15:32;;;;;;;5.18;2.92;;;17.80;46.80;;;;;;4928580;29;20047;-84
2022/03/21 02:18:02;;;;;;;6.25;3.65;;;17.80;46.70;;;;;;4957543;28;20109;-83
2022/03/21 02:20:34;;;;;;;5.63;3.40;;;17.80;46.80;;;;;;4940473;29;20078;-83
2022/03/21 02:23:18;;;;;;;5.18;3.55;;;17.80;46.80;;;;;;4940722;29;20506;-83
2022/03/21 02:25:46;;;;;;;5.53;3.53;;;17.80;46.80;;;;;;4958108;29;20108;-84
2022/03/21 02:28:22;;;;;;;5.53;3.55;;;17.80;46.80;;;;;;4909805;29;20043;-83
2022/03/21 02:30:49;;;;;;;4.78;3.20;;;17.80;46.80;;;;;;4956446;29;20059;-83
2022/03/21 02:33:22;;;;;;;5.07;3.20;;;17.70;46.70;;;;;;4956780;29;20055;-83
2022/03/21 02:35:51;;;;;;;4.88;3.22;;;17.70;46.70;;;;;;4924844;29;20102;-83
2022/03/21 02:38:38;;;;;;;5.50;3.70;;;17.70;46.80;;;;;;4957919;29;20066;-83
2022/03/21 02:41:04;;;;;;;5.90;3.42;;;17.70;46.80;;;;;;4923864;29;20043;-83
2022/03/21 02:47:30;;;;;;;;;;;17.70;46.80;;;;;;4915553;29;20504;-83
2022/03/21 02:50:53;;;;;;;5.35;3.20;;;19.00;47.50;;;;;;4940732;29;20028;-84
2022/03/21 02:53:52;;;;;;;5.32;3.22;;;18.40;47.20;;;;;;4957378;29;20055;-83
2022/03/21 02:56:46;;;;;;;6.72;2.97;;;17.30;46.80;;;;;;4940637;29;20055;-83
2022/03/21 02:59:18;;;;;;;5.78;3.47;;;16.80;46.30;;;;;;4958519;29;20086;-83
2022/03/21 03:01:44;;;;;;;5.30;3.38;;;17.80;47.50;;;;;;4951986;23;20065;-83
2022/03/21 03:04:13;;;;;;;6.03;3.15;;;17.70;46.90;;;;;;4937655;29;20492;-84
2022/03/21 03:06:39;;;;;;;5.65;3.30;;;17.70;46.80;;;;;;4938500;29;20060;-83
2022/03/21 03:09:06;;;;;;;4.30;2.83;;;17.70;46.90;;;;;;4937576;29;20543;-84
2022/03/21 03:11:36;;;;;;;4.80;3.10;;;17.70;46.90;;;;;;4937761;29;20491;-84
2022/03/21 03:14:05;;;;;;;4.85;2.85;;;17.70;46.90;;;;;;4937230;29;20063;-83
2022/03/21 03:16:34;;;;;;;5.75;3.20;;;17.70;46.90;;;;;;4935658;29;20051;-83
2022/03/21 03:19:03;;;;;;;5.95;3.38;;;17.70;46.90;;;;;;4936737;29;20047;-83
2022/03/21 03:21:34;;;;;;;4.97;3.38;;;17.70;46.90;;;;;;4937841;29;20054;-84
2022/03/21 03:23:59;;;;;;;5.05;3.25;;;17.70;46.90;;;;;;4921063;29;20114;-84
2022/03/21 03:26:25;;;;;;;4.55;3.10;;;17.70;46.90;;;;;;4921014;29;20138;-83
2022/03/21 03:28:50;;;;;;;5.15;3.05;;;19.00;47.60;;;;;;4938300;29;20048;-83
2022/03/21 03:31:19;;;;;;;5.40;3.58;;;18.00;47.00;;;;;;4937778;29;20043;-83
2022/03/21 03:33:46;;;;;;;4.95;2.83;;;17.70;46.90;;;;;;4939143;29;20047;-84
2022/03/21 03:36:15;;;;;;;5.25;3.30;;;17.70;46.90;;;;;;4936872;29;20050;-83
2022/03/21 03:38:42;;;;;;;4.13;2.65;;;17.70;46.90;;;;;;4937902;29;20052;-83
2022/03/21 03:41:10;;;;;;;5.65;3.22;;;17.70;46.90;;;;;;4937367;29;20052;-83
2022/03/21 03:43:37;;;;;;;5.03;3.28;;;18.00;47.10;;;;;;4935612;29;20039;-83
2022/03/21 03:46:02;;;;;;;4.28;2.85;;;17.70;46.90;;;;;;4935931;29;20055;-83
2022/03/21 03:48:29;;;;;;;4.40;2.45;;;17.70;46.90;;;;;;4933697;29;20126;-83
2022/03/21 03:50:55;;;;;;;4.05;2.70;;;17.70;46.90;;;;;;4933904;29;20462;-83
2022/03/21 03:53:27;;;;;;;5.28;2.67;;;17.60;46.90;;;;;;4935414;29;20060;-83
2022/03/21 03:55:53;;;;;;;5.07;2.88;;;19.10;47.70;;;;;;4935402;29;20052;-83
2022/03/21 03:58:25;;;;;;;4.57;2.83;;;18.90;47.60;;;;;;4937208;29;20127;-83
2022/03/21 04:00:56;;;;;;;4.60;2.85;;;17.60;46.90;;;;;;4959164;23;20047;-83
2022/03/21 04:06:07;;;;;;;4.60;2.67;;;17.60;46.90;;;;;;4955755;29;20133;-83
2022/03/21 04:08:33;;;;;;;4.40;2.70;;;17.60;46.90;;;;;;4922910;29;20155;-83
2022/03/21 04:10:59;;;;;;;4.72;2.80;;;17.60;46.90;;;;;;4955504;29;20074;-83
2022/03/21 04:13:29;;;;;;;5.15;3.13;;;17.60;46.90;;;;;;4938899;29;20074;-81
2022/03/21 05:38:11;;;;;;;;;;;16.50;46.50;;;;;;4948976;29;20633;-82
2022/03/21 05:45:24;;;;;;;3.45;2.33;;;16.40;46.50;;;;;;4892242;29;20554;-82
2022/03/21 05:52:15;;;;;;;4.22;2.28;;;19.00;47.90;;;;;;4893374;29;20421;-82
2022/03/21 05:55:27;;;;;;;3.50;1.95;;;16.40;46.40;;;;;;4845809;29;20098;-83
2022/03/21 05:58:46;;;;;;;;;;;;;;;;;;;;;
2022/03/21 06:01:55;;;;;;;3.45;2.13;;;17.50;46.50;;;;;;4889867;29;20088;-82
2022/03/21 06:05:23;;;;;;;5.45;2.45;;;17.50;47.10;;;;;;4882554;29;20137;-82
2022/03/21 06:08:44;;;;;;;3.10;2.08;;;17.40;47.00;;;;;;4827347;29;20095;-82
2022/03/21 06:11:16;;;;;;;3.40;1.98;;;17.40;46.40;;;;;;4858282;29;20102;-82
2022/03/21 06:13:56;;;;;;;4.28;2.55;;;17.50;48.10;;;;;;4843399;29;20116;-82
2022/03/21 06:17:20;;;;;;;3.40;2.20;;;17.40;47.60;;;;;;4858887;29;20069;-82
2022/03/21 06:20:23;;;;;;;4.22;2.20;;;16.60;46.60;;;;;;4858978;29;20458;-82
2022/03/21 06:23:07;;;;;;;3.28;1.88;;;17.90;47.30;;;;;;4877411;29;20057;-82
2022/03/21 06:29:54;;;;;;;4.38;2.45;;;16.40;46.50;;;;;;4922982;29;20053;-82
2022/03/21 06:32:45;;;;;;;3.72;2.47;;;16.80;46.80;;;;;;4860404;29;20389;-82
2022/03/21 06:36:05;;;;;;;4.30;2.30;;;17.40;47.00;;;;;;4820205;29;20089;-82
2022/03/21 06:48:03;;;;;;;2.97;1.70;;;17.60;47.30;;;;;;4934314;29;20062;-82
2022/03/21 06:50:29;;;;;;;4.10;2.00;;;17.40;47.80;;;;;;4922448;29;20181;-82
2022/03/21 06:53:25;;;;;;;3.40;1.80;;;17.40;47.40;;;;;;4933085;29;20052;-82
2022/03/21 07:00:13;;;;;;;3.45;2.10;;;18.50;47.70;;;;;;4896394;29;20109;-82
2022/03/21 07:03:16;;;;;;;3.92;2.42;;;17.40;47.00;;;;;;4881020;29;20132;-82
2022/03/21 07:13:11;;;;;;;3.50;1.92;;;17.00;46.90;;;;;;4935921;29;20047;-83
2022/03/21 07:19:35;;;;;;;3.78;2.22;;;17.20;47.00;;;;;;4932481;29;20043;-84
2022/03/21 07:25:57;;;;;;;3.60;2.05;;;16.10;46.50;;;;;;4954451;29;20051;-82
2022/03/21 07:28:23;;;;;;;3.38;2.03;;;17.80;47.40;;;;;;4904154;29;20059;-84
2022/03/21 07:31:09;;;;;;;3.35;1.90;;;17.70;47.60;;;;;;4955623;29;20066;-83
2022/03/21 07:33:54;;;;;;;3.75;1.98;;;17.00;47.00;;;;;;4940165;29;20047;-83
2022/03/21 07:36:51;;;;;;;3.42;1.98;;;17.40;47.70;;;;;;4957085;29;20130;-84
2022/03/21 07:39:34;;;;;;;3.70;1.92;;;17.90;47.40;;;;;;4956748;29;20098;-83
2022/03/21 07:42:55;;;;;;;3.60;1.80;;;18.20;48.00;;;;;;4938828;29;20047;-84
2022/03/21 07:53:27;;;;;;;3.10;1.80;;;18.00;47.50;;;;;;4823120;29;20123;-85
2022/03/21 07:56:25;;;;;;;3.05;1.63;;;18.00;47.60;;;;;;4822720;29;20062;-85
2022/03/21 07:59:03;;;;;;;3.08;1.80;;;16.80;46.90;;;;;;4805196;29;20104;-84
2022/03/21 08:01:29;;;;;;;3.78;1.80;;;17.40;47.40;;;;;;4775324;29;20439;-84
2022/03/21 08:07:13;;;;;;;2.72;1.60;;;17.30;47.70;;;;;;4846381;29;20108;-84
2022/03/21 08:10:12;;;;;;;3.03;1.52;;;17.00;47.00;;;;;;4909353;29;20054;-84
2022/03/21 08:16:20;;;;;;;2.75;1.50;;;17.90;47.40;;;;;;4937147;29;20046;-85
2022/03/21 08:23:02;;;;;;;3.97;1.60;;;18.40;47.70;;;;;;4842688;29;20088;-84
2022/03/21 08:25:56;;;;;;;3.90;1.98;;;16.60;46.70;;;;;;4840817;29;20052;-84
2022/03/21 08:28:46;;;;;;;3.80;1.60;;;19.30;48.40;;;;;;4840174;29;20060;-83
2022/03/21 08:31:33;;;;;;;3.47;1.80;;;17.40;47.70;;;;;;4824013;29;20068;-83
2022/03/21 08:34:12;;;;;;;3.90;1.45;;;17.60;47.80;;;;;;4820479;29;20053;-83
2022/03/21 08:37:29;;;;;;;3.38;2.00;;;18.30;49.00;;;;;;4870161;29;20060;-83
2022/03/21 08:40:16;;;;;;;3.88;1.63;;;18.40;47.60;;;;;;4880175;29;20060;-85
2022/03/21 08:42:57;;;;;;;5.80;3.05;;;19.20;48.30;;;;;;4895776;29;20068;-86
2022/03/21 08:45:23;;;;;;;15.27;5.47;;;17.10;47.60;;;;;;4922896;29;20059;-93
2022/03/21 08:51:37;;;;;;;7.93;4.15;;;17.50;48.10;;;;;;4914749;29;20055;-82
2022/03/21 08:57:27;;;;;;;6.60;3.90;;;17.20;47.10;;;;;;4949374;29;20066;-83
2022/03/21 09:00:15;;;;;;;6.35;3.97;;;17.20;47.80;;;;;;4937833;29;20055;-83
2022/03/21 09:02:46;;;;;;;6.53;3.33;;;18.70;48.00;;;;;;4956438;29;20488;-83
2022/03/21 09:08:51;;;;;;;6.40;3.47;;;18.70;47.80;;;;;;4958665;23;20082;-84
2022/03/21 09:11:21;;;;;;;7.78;3.60;;;17.60;47.10;;;;;;4939087;29;20476;-83
2022/03/21 09:16:22;;;;;;;6.50;3.30;;;17.70;47.20;;;;;;5244346;23;20066;-82
2022/03/21 09:18:49;;;;;;;6.60;3.30;;;17.10;47.00;;;;;;4919869;29;20052;-81
2022/03/21 09:21:15;;;;;;;8.07;3.22;;;18.20;47.60;;;;;;4916592;29;20050;-83
2022/03/21 09:23:43;;;;;;;6.30;2.78;;;17.70;48.20;;;;;;4934206;29;20399;-81
2022/03/21 09:26:40;;;;;;;6.00;2.75;;;18.60;48.10;;;;;;4949541;28;20121;-82
2022/03/21 09:29:06;;;;;;;7.13;2.70;;;18.20;47.40;;;;;;4932148;29;20047;-83
2022/03/21 09:31:55;;;;;;;5.28;2.60;;;17.30;47.60;;;;;;4930013;29;20054;-82
2022/03/21 09:34:34;;;;;;;;;;;;;;;;;;;;;
2022/03/21 09:41:26;;;;;;;6.72;3.03;;;18.60;47.80;;;;;;4859467;29;20580;-85
2022/03/21 09:44:16;;;;;;;7.90;3.28;;;17.90;47.20;;;;;;4877290;29;20149;-85
2022/03/21 09:46:47;;;;;;;5.13;3.13;;;17.80;47.30;;;;;;4930982;29;20520;-81
2022/03/21 09:49:30;;;;;;;9.13;2.83;;;19.20;47.90;;;;;;4949064;29;20058;-84
2022/03/21 09:52:12;;;;;;;6.47;2.50;;;17.60;47.50;;;;;;4889569;29;20083;-86
2022/03/21 09:54:39;;;;;;;8.43;2.70;;;17.40;47.10;;;;;;4943815;29;20043;-83
2022/03/21 09:57:31;;;;;;;6.10;3.15;;;18.90;48.40;;;;;;4922194;29;20492;-83
2022/03/21 10:00:02;;;;;;;5.60;2.20;;;17.40;46.80;;;;;;4961366;29;20055;-83
2022/03/21 10:02:52;;;;;;;7.03;2.50;;;17.90;48.00;;;;;;4943910;29;20071;-84
2022/03/21 10:08:48;;;;;;;4.65;2.05;;;18.90;48.00;;;;;;4925749;29;20051;-85
2022/03/21 10:11:32;;;;;;;6.43;2.30;;;17.70;46.90;;;;;;4940385;29;20103;-85
2022/03/21 10:14:59;;;;;;;3.30;1.98;;;19.00;47.50;;;;;;4947854;29;20051;-84
2022/03/21 10:17:37;;;;;;;4.95;2.00;;;17.10;46.50;;;;;;4937099;23;20199;-84
2022/03/21 10:20:47;;;;;;;4.28;2.10;;;15.90;46.30;;;;;;4940495;29;20086;-84
2022/03/21 10:23:23;;;;;;;4.40;2.05;;;18.20;47.10;;;;;;4923794;29;20092;-85
2022/03/21 10:25:49;;;;;;;3.90;1.98;;;18.10;48.00;;;;;;4920879;29;20123;-85
2022/03/21 10:29:10;;;;;;;5.80;2.08;;;17.70;46.90;;;;;;4921226;29;20476;-85
2022/03/21 10:31:42;;;;;;;4.85;2.00;;;18.10;47.00;;;;;;4851008;29;20138;-84
2022/03/21 10:35:04;;;;;;;4.75;1.80;;;17.80;47.10;;;;;;4927294;29;20063;-85
2022/03/21 10:37:53;;;;;;;5.18;2.15;;;18.10;46.80;;;;;;4941571;23;20071;-84
2022/03/21 10:40:48;;;;;;;3.92;1.70;;;18.10;46.80;;;;;;4948074;29;20130;-84
2022/03/21 10:43:59;;;;;;;5.93;1.98;;;18.40;46.90;;;;;;4936265;29;20142;-84
2022/03/21 10:46:25;;;;;;;4.53;2.13;;;17.30;46.30;;;;;;4949353;29;20058;-84
2022/03/21 10:49:08;;;;;;;4.35;1.85;;;17.90;46.70;;;;;;4937204;29;20043;-84
2022/03/21 10:51:48;;;;;;;4.28;1.85;;;18.20;46.70;;;;;;4937238;29;20512;-85
2022/03/21 10:54:48;;;;;;;3.35;1.90;;;18.30;46.80;;;;;;4957206;29;20047;-84
2022/03/21 10:57:36;;;;;;;5.90;2.00;;;18.30;46.80;;;;;;4953252;29;20055;-85
2022/03/21 11:00:33;;;;;;;4.03;1.70;;;18.30;46.80;;;;;;4954042;29;20047;-84
2022/03/21 11:03:09;;;;;;;3.72;1.85;;;18.30;46.80;;;;;;4956585;29;20051;-85
2022/03/21 11:05:41;;;;;;;5.07;2.03;;;18.30;46.80;;;;;;4936834;29;20047;-85
2022/03/21 11:08:11;;;;;;;5.07;1.55;;;18.30;46.90;;;;;;4937356;29;20047;-85
2022/03/21 11:10:37;;;;;;;4.55;1.60;;;18.30;46.80;;;;;;4935639;29;20048;-84
2022/03/21 11:13:04;;;;;;;4.85;1.75;;;18.30;46.80;;;;;;4930341;29;20051;-84
2022/03/21 11:15:30;;;;;;;5.47;2.88;;;18.30;46.90;;;;;;4921139;29;20055;-84
2022/03/21 11:17:56;;;;;;;4.80;1.80;;;18.40;46.90;;;;;;4938430;29;20106;-84
2022/03/21 11:20:22;;;;;;;4.53;1.83;;;18.30;46.80;;;;;;4920927;29;20792;-85
2022/03/21 11:22:48;;;;;;;3.42;1.67;;;18.40;46.90;;;;;;4921088;29;20054;-84
2022/03/21 11:25:16;;;;;;;4.28;1.80;;;18.40;46.90;;;;;;4922644;29;20047;-85
2022/03/21 11:28:04;;;;;;;3.42;1.75;;;18.40;46.90;;;;;;4940504;29;20047;-84
2022/03/21 11:30:57;;;;;;;2.95;1.80;;;18.40;46.90;;;;;;4948952;29;20200;-84
2022/03/21 11:33:39;;;;;;;4.07;1.90;;;18.40;46.90;;;;;;4946660;29;20043;-85
2022/03/21 11:36:09;;;;;;;3.33;1.55;;;18.40;46.90;;;;;;4904976;29;20075;-85
2022/03/21 11:38:47;;;;;;;4.05;1.63;;;18.50;46.90;;;;;;4938762;29;20052;-85
2022/03/21 11:41:20;;;;;;;5.07;2.17;;;18.50;47.00;;;;;;4938067;29;20052;-85
2022/03/21 11:44:07;;;;;;;3.85;1.90;;;18.50;46.90;;;;;;4945835;29;20051;-84
2022/03/21 11:46:36;;;;;;;3.58;1.67;;;18.50;46.90;;;;;;4941925;29;20408;-85
2022/03/21 11:49:25;;;;;;;3.25;1.80;;;18.50;46.90;;;;;;4940001;29;20538;-85
2022/03/21 11:52:00;;;;;;;4.72;1.98;;;18.50;46.90;;;;;;4910629;29;20084;-84
2022/03/21 11:54:28;;;;;;;4.03;2.03;;;18.50;46.90;;;;;;4943634;29;20098;-84
2022/03/21 11:57:04;;;;;;;3.90;2.47;;;19.40;47.40;;;;;;4940269;29;20070;-84
2022/03/21 11:59:36;;;;;;;3.22;1.70;;;18.50;46.90;;;;;;4956696;29;20051;-83
2022/03/21 12:13:00;;;;;;;6.75;1.80;;;19.40;47.30;;;;;;4958848;29;20558;-84
2022/03/21 12:22:00;;;;;;;3.20;1.58;;;18.60;46.80;;;;;;5209017;23;20047;-83
2022/03/21 12:24:48;;;;;;;4.05;1.90;;;18.70;46.90;;;;;;4954546;28;20055;-84
2022/03/21 12:27:39;;;;;;;3.30;1.67;;;18.30;46.70;;;;;;4925614;29;20047;-83
2022/03/21 12:30:32;;;;;;;4.18;1.88;;;18.60;46.80;;;;;;4949316;29;20047;-83
2022/03/21 12:33:10;;;;;;;4.20;1.83;;;18.70;46.90;;;;;;4943549;29;20044;-83
2022/03/21 12:35:54;;;;;;;3.42;2.00;;;18.70;46.80;;;;;;4943602;29;20043;-83
2022/03/21 12:38:33;;;;;;;2.92;1.50;;;18.70;46.80;;;;;;4940950;29;20125;-83
2022/03/21 12:41:03;;;;;;;3.80;1.92;;;18.70;46.80;;;;;;4941165;29;20667;-84
2022/03/21 12:43:33;;;;;;;4.47;1.85;;;18.70;46.80;;;;;;4951016;29;20154;-82
2022/03/21 12:46:08;;;;;;;3.13;1.60;;;18.70;46.80;;;;;;4938955;29;20125;-82
2022/03/21 12:48:35;;;;;;;3.70;2.00;;;18.70;46.80;;;;;;4958969;29;20164;-84
2022/03/21 12:51:04;;;;;;;4.45;1.90;;;18.70;46.80;;;;;;4939983;29;20076;-84
2022/03/21 12:53:47;;;;;;;3.60;1.58;;;18.80;46.80;;;;;;4936765;29;20055;-83
2022/03/21 12:56:14;;;;;;;4.65;1.77;;;18.80;46.80;;;;;;4938695;29;20496;-83
2022/03/21 12:58:47;;;;;;;4.63;1.98;;;18.80;46.80;;;;;;4937877;29;20051;-83
2022/03/21 13:01:17;;;;;;;3.55;1.92;;;18.80;46.80;;;;;;4922637;29;20048;-83
2022/03/21 13:03:46;;;;;;;4.15;2.00;;;18.80;46.80;;;;;;4920728;29;20090;-83
2022/03/21 13:11:55;;;;;;;3.53;1.90;;;18.80;46.80;;;;;;4920864;29;20464;-84
2022/03/21 13:14:26;;;;;;;5.05;1.95;;;18.80;46.90;;;;;;4942757;29;20039;-83
2022/03/21 13:17:14;;;;;;;3.20;1.70;;;18.90;46.80;;;;;;4940182;29;20107;-83
2022/03/21 13:19:42;;;;;;;2.88;1.67;;;18.90;47.50;;;;;;4940333;29;20499;-85
2022/03/21 13:22:29;;;;;;;3.72;1.90;;;18.90;46.90;;;;;;4943774;29;20047;-85
2022/03/21 13:25:54;;;;;;;3.90;2.05;;;19.00;46.90;;;;;;4949944;29;20669;-85
2022/03/21 13:28:31;;;;;;;2.92;1.70;;;17.70;46.30;;;;;;4935434;29;20052;-84
2022/03/21 13:31:30;;;;;;;3.90;1.90;;;18.90;47.20;;;;;;4915381;29;20050;-85
2022/03/21 13:33:58;;;;;;;3.05;1.83;;;20.20;47.70;;;;;;4954975;29;20123;-85
2022/03/21 13:36:24;;;;;;;3.30;1.75;;;19.90;47.40;;;;;;4954101;29;20114;-85
2022/03/21 13:39:08;;;;;;;2.55;1.58;;;20.60;48.00;;;;;;4960457;23;20523;-84
2022/03/21 13:41:49;;;;;;;2.80;1.50;;;18.90;47.00;;;;;;4954743;29;20062;-84
2022/03/21 13:44:14;;;;;;;3.20;1.60;;;18.90;46.80;;;;;;4941761;29;20062;-84
2022/03/21 13:47:04;;;;;;;3.28;1.50;;;18.90;46.90;;;;;;4939068;29;20043;-85
2022/03/21 13:49:56;;;;;;;3.08;1.75;;;19.10;46.90;;;;;;4937623;29;20058;-84
2022/03/21 13:52:44;;;;;;;4.03;1.60;;;18.90;46.80;;;;;;4956482;29;20054;-84
2022/03/21 13:55:18;;;;;;;3.28;1.60;;;19.00;46.90;;;;;;4937286;29;20082;-84
2022/03/21 13:57:54;;;;;;;3.17;1.40;;;19.00;46.80;;;;;;4939779;29;20047;-84
2022/03/21 14:00:27;;;;;;;3.00;1.65;;;19.00;46.90;;;;;;4928197;29;20440;-84
2022/03/21 14:02:54;;;;;;;3.65;1.77;;;19.00;46.80;;;;;;4944358;29;20102;-84
2022/03/21 14:05:26;;;;;;;3.35;1.45;;;20.10;47.40;;;;;;4930516;29;20059;-84
2022/03/21 14:08:00;;;;;;;3.05;1.52;;;19.00;46.90;;;;;;4919441;29;20075;-84
2022/03/21 14:10:26;;;;;;;3.30;1.70;;;19.00;46.90;;;;;;4904580;29;20122;-84
2022/03/21 14:12:55;;;;;;;2.70;1.50;;;20.00;47.40;;;;;;4946319;28;20085;-84
2022/03/21 14:15:23;;;;;;;3.58;1.55;;;19.10;46.90;;;;;;4936637;29;20067;-83
2022/03/21 14:18:01;;;;;;;3.85;1.90;;;19.10;46.90;;;;;;4948027;29;20086;-84
2022/03/21 14:20:42;;;;;;;2.72;1.48;;;19.10;46.90;;;;;;4935669;29;20385;-84
2022/03/21 14:23:09;;;;;;;3.67;1.77;;;19.10;46.90;;;;;;4928575;29;20055;-90
2022/03/21 14:31:58;;;;;;;3.35;1.50;;;19.10;46.90;;;;;;5888314;23;20063;-90
2022/03/21 14:35:01;;;;;;;2.95;1.63;;;18.40;46.60;;;;;;4939553;29;20039;-83
2022/03/21 14:37:41;;;;;;;3.40;2.17;;;19.50;47.20;;;;;;4939370;29;20126;-84
2022/03/21 14:40:12;;;;;;;3.28;1.92;;;18.70;47.20;;;;;;4938403;29;20066;-84
2022/03/21 14:42:41;;;;;;;3.47;1.70;;;19.10;47.00;;;;;;4941265;29;20047;-82
2022/03/21 14:45:08;;;;;;;3.63;2.00;;;20.80;48.10;;;;;;4956215;29;20087;-84
2022/03/21 14:47:34;;;;;;;3.63;1.85;;;19.10;47.00;;;;;;4932178;29;20117;-84
2022/03/21 14:52:49;;;;;;;3.45;1.80;;;18.50;46.60;;;;;;4964030;23;20066;-83
2022/03/21 14:55:15;;;;;;;3.58;1.90;;;18.40;47.50;;;;;;4961171;23;20055;-83
2022/03/21 14:57:40;;;;;;;4.78;2.00;;;18.90;47.20;;;;;;4939190;29;20047;-83
2022/03/21 15:15:27;;;;;;;5.20;2.53;;;18.40;46.70;;;;;;4936319;29;20050;-89
2022/03/21 15:33:39;;;;;;;4.68;2.88;;;18.40;46.70;;;;;;4770036;30;20054;-83
2022/03/21 15:42:07;;;;;;;5.72;3.42;;;19.00;47.40;;;;;;4908145;29;20087;-84
2022/03/21 16:14:41;;;;;;;5.72;3.10;;;19.50;47.40;;;;;;4829409;29;20052;-84
2022/03/21 16:44:30;;;;;;;5.32;3.35;;;21.00;48.50;;;;;;5122841;23;21184;-84
2022/03/21 16:53:32;;;;;;;5.65;3.45;;;19.30;47.70;;;;;;5479315;23;20078;-84
2022/03/21 16:56:04;;;;;;;6.75;4.05;;;19.30;47.80;;;;;;5088185;23;20051;-84
2022/03/21 16:58:29;;;;;;;6.47;4.05;;;18.80;48.50;;;;;;4906460;29;20048;-84
2022/03/21 17:04:34;;;;;;;6.32;4.30;;;19.40;47.80;;;;;;4928590;29;20078;-84
2022/03/21 17:07:37;;;;;;;5.18;3.53;;;19.40;48.00;;;;;;4946644;29;20040;-84
2022/03/21 19:07:00;;;;;;;5.22;3.00;;;18.90;48.10;;;;;;4941445;29;20051;-89
2022/03/21 19:36:13;;;;;;;4.10;2.70;;;19.90;48.60;;;;;;4825098;29;20065;-90
2022/03/21 19:43:29;;;;;;;;;;;;;;;;;;;;;
2022/03/21 20:11:45;;;;;;;5.97;2.70;;;19.40;48.50;;;;;;4957587;28;20113;-89
2022/03/21 20:31:48;;;;;;;3.80;2.42;;;19.50;48.60;;;;;;4944141;29;20050;-88
2022/03/21 20:35:04;;;;;;;4.90;2.63;;;21.00;50.30;;;;;;4937967;29;20401;-89
2022/03/21 20:37:47;;;;;;;3.90;2.30;;;18.50;48.20;;;;;;4938535;29;20051;-89
2022/03/21 20:44:34;;;;;;;;;;;;;;;;;;;;;
2022/03/21 20:51:29;;;;;;;4.30;2.63;;;19.30;48.80;;;;;;4921561;29;20106;-89
2022/03/21 20:57:56;;;;;;;4.78;2.70;;;19.10;48.70;;;;;;4957419;29;20494;-88
2022/03/21 21:16:13;;;;;;;4.63;3.03;;;18.50;48.60;;;;;;4955602;29;20051;-87
2022/03/21 21:19:20;;;;;;;5.78;3.35;;;18.40;48.70;;;;;;4933874;29;20059;-86
2022/03/21 21:21:53;;;;;;;6.15;3.35;;;19.30;49.10;;;;;;4951539;28;20048;-86
2022/03/21 21:25:13;;;;;;;5.55;3.28;;;19.10;49.10;;;;;;5329042;23;20014;-85
2022/03/21 21:27:39;;;;;;;5.30;3.00;;;18.40;48.60;;;;;;4959168;29;20055;-85
2022/03/21 21:30:27;;;;;;;5.03;3.03;;;18.40;48.70;;;;;;4925873;29;20051;-86
2022/03/21 21:41:17;;;;;;;5.05;3.08;;;18.40;48.70;;;;;;4940794;29;20562;-89
2022/03/21 21:47:55;;;;;;;5.88;3.03;;;19.20;49.10;;;;;;4918142;29;20118;-87
2022/03/21 21:54:32;;;;;;;;;;;;;;;;;;;;;
2022/03/21 21:57:06;;;;;;;4.95;2.80;;;20.60;50.30;;;;;;4820489;29;20198;-85
2022/03/21 21:59:32;;;;;;;5.28;3.15;;;19.00;50.30;;;;;;4844520;29;20069;-86
2022/03/21 22:02:11;;;;;;;4.93;2.88;;;18.90;49.80;;;;;;4874790;29;20052;-85
2022/03/21 22:04:41;;;;;;;4.28;2.67;;;19.20;49.30;;;;;;5034319;23;20018;-85
2022/03/21 22:07:10;;;;;;;5.25;2.92;;;19.20;49.50;;;;;;4957568;29;20527;-85
2022/03/21 22:13:13;;;;;;;4.97;3.00;;;19.10;49.70;;;;;;4908554;29;20056;-85
2022/03/21 22:16:25;;;;;;;5.03;2.90;;;20.90;50.70;;;;;;5048739;23;20473;-86
2022/03/21 22:21:41;;;;;;;4.50;3.00;;;19.60;49.90;;;;;;4965020;23;20423;-86
2022/03/21 22:26:41;;;;;;;5.22;3.05;;;19.20;50.50;;;;;;4976040;28;20047;-85
2022/03/21 22:29:07;;;;;;;4.60;3.03;;;19.20;49.70;;;;;;4977945;28;20058;-85
2022/03/21 22:31:34;;;;;;;4.75;3.10;;;19.10;49.80;;;;;;4961055;28;20054;-86
2022/03/21 22:34:03;;;;;;;4.05;2.50;;;19.70;50.60;;;;;;4960184;23;20484;-86
2022/03/21 22:37:16;;;;;;;4.68;2.95;;;19.30;50.40;;;;;;4959558;29;20175;-86
2022/03/21 22:50:19;;;;;;;4.38;2.75;;;18.40;49.50;;;;;;4825169;29;20095;-85
2022/03/21 22:52:53;;;;;;;5.13;2.95;;;19.40;50.50;;;;;;4772286;29;20063;-86
2022/03/21 22:55:48;;;;;;;4.45;3.05;;;19.50;50.50;;;;;;4778276;30;20059;-86
2022/03/21 22:58:26;;;;;;;5.43;3.03;;;19.10;50.50;;;;;;4820452;29;20057;-86
2022/03/21 23:01:18;;;;;;;4.28;2.80;;;18.80;49.80;;;;;;4862420;29;20125;-86
2022/03/21 23:04:12;;;;;;;5.30;3.42;;;20.30;50.80;;;;;;4975730;23;20058;-85
2022/03/21 23:06:38;;;;;;;4.55;3.08;;;18.70;49.80;;;;;;4959661;29;20062;-85
2022/03/21 23:09:34;;;;;;;4.80;2.83;;;20.50;51.00;;;;;;4942728;29;20055;-86
2022/03/21 23:12:04;;;;;;;4.55;2.78;;;18.70;49.80;;;;;;4958117;29;20063;-85
2022/03/21 23:14:36;;;;;;;4.32;2.92;;;19.00;50.30;;;;;;4923799;29;20121;-85